createdAt,value
2023-08-15T00:03:29.678Z,14.18
2023-08-15T00:08:32.315Z,13.15
2023-08-15T00:13:34.927Z,12.05
2023-08-15T00:18:38.779Z,12.75
2023-08-15T00:23:44.386Z,16.55
2023-08-15T00:28:47.402Z,13.90
2023-08-15T00:33:50.474Z,11.40
2023-08-15T00:38:53.495Z,11.63
2023-08-15T00:43:56.329Z,8.93
2023-08-15T00:48:59.683Z,16.35
2023-08-15T00:54:02.538Z,15.20
2023-08-15T00:59:05.684Z,13.60
2023-08-15T01:04:10.278Z,22.95
2023-08-15T01:09:16.148Z,17.48
2023-08-15T01:14:21.173Z,22.58
2023-08-15T01:19:41.786Z,26.05
2023-08-15T01:24:46.609Z,22.95
2023-08-15T01:29:54.284Z,25.00
2023-08-15T01:35:19.925Z,22.17
2023-08-15T01:40:22.964Z,18.40
2023-08-15T01:45:27.043Z,18.27
2023-08-15T01:50:31.484Z,28.48
2023-08-15T01:55:34.137Z,23.13
2023-08-15T02:00:37.427Z,23.25
2023-08-15T02:05:43.259Z,24.88
2023-08-15T02:10:46.191Z,25.42
2023-08-15T02:15:49.437Z,26.02
2023-08-15T02:20:51.996Z,22.38
2023-08-15T02:25:54.995Z,22.55
2023-08-15T02:31:08.472Z,25.63
2023-08-15T02:36:12.432Z,24.27
2023-08-15T02:41:15.432Z,22.75
2023-08-15T02:46:26.572Z,20.33
2023-08-15T02:51:54.660Z,17.65
2023-08-15T02:56:57.415Z,20.88
2023-08-15T03:02:25.087Z,20.90
2023-08-15T03:07:29.393Z,19.92
2023-08-15T03:12:32.301Z,18.67
2023-08-15T03:17:41.324Z,19.75
2023-08-15T03:22:46.538Z,19.45
2023-08-15T03:27:50.101Z,19.30
2023-08-15T03:32:53.357Z,19.92
2023-08-15T03:38:06.001Z,20.23
2023-08-15T03:43:08.649Z,19.65
2023-08-15T03:48:11.641Z,22.88
2023-08-15T03:53:14.466Z,18.98
2023-08-15T03:58:19.007Z,16.48
2023-08-15T04:03:21.446Z,21.27
2023-08-15T04:08:30.503Z,17.65
2023-08-15T04:13:34.816Z,16.08
2023-08-15T04:18:37.193Z,15.15
2023-08-15T04:23:40.074Z,13.63
2023-08-15T04:28:52.216Z,13.93
2023-08-15T04:33:55.209Z,14.45
2023-08-15T04:38:58.713Z,11.98
2023-08-15T04:44:01.494Z,11.30
2023-08-15T04:49:04.259Z,12.98
2023-08-15T04:54:07.913Z,10.90
2023-08-15T04:59:11.148Z,10.10
2023-08-15T05:04:13.771Z,10.05
2023-08-15T05:09:16.380Z,7.65
2023-08-15T05:14:19.652Z,7.63
2023-08-15T05:19:22.612Z,9.40
2023-08-15T05:24:26.931Z,7.05
2023-08-15T05:29:31.646Z,7.95
2023-08-15T05:34:34.750Z,8.00
2023-08-15T05:39:39.359Z,10.30
2023-08-15T05:44:41.979Z,7.38
2023-08-15T05:49:46.224Z,8.70
2023-08-15T05:54:48.906Z,8.00
2023-08-15T05:59:51.526Z,8.75
2023-08-15T06:04:54.748Z,6.70
2023-08-15T06:09:57.413Z,7.22
2023-08-15T06:15:00.158Z,7.00
2023-08-15T06:20:02.611Z,7.38
2023-08-15T06:25:05.948Z,10.95
2023-08-15T06:30:10.202Z,9.05
2023-08-15T06:35:18.073Z,8.05
2023-08-15T06:40:20.956Z,7.40
2023-08-15T06:45:25.127Z,7.07
2023-08-15T06:50:28.114Z,7.20
2023-08-15T06:55:31.589Z,6.95
2023-08-15T07:00:34.185Z,8.05
2023-08-15T07:05:36.833Z,8.48
2023-08-15T07:10:40.130Z,11.52
2023-08-15T07:15:42.645Z,6.30
2023-08-15T07:20:46.287Z,7.93
2023-08-15T07:25:49.298Z,10.13
2023-08-15T07:30:51.756Z,6.28
2023-08-15T07:35:57.170Z,4.65
2023-08-15T07:40:59.950Z,5.07
2023-08-15T07:46:02.518Z,4.47
2023-08-15T07:51:05.119Z,5.78
2023-08-15T07:56:09.209Z,4.45
2023-08-15T08:01:16.275Z,5.32
2023-08-15T08:06:37.085Z,4.18
2023-08-15T08:11:43.543Z,4.47
2023-08-15T08:16:46.557Z,10.82
2023-08-15T08:21:49.065Z,3.92
2023-08-15T08:27:06.181Z,4.07
2023-08-15T08:32:09.086Z,4.57
2023-08-15T08:37:12.579Z,6.22
2023-08-15T08:42:17.235Z,5.85
2023-08-15T08:47:23.934Z,4.28
2023-08-15T08:52:42.593Z,4.18
2023-08-15T08:57:47.521Z,4.95
2023-08-15T09:02:50.813Z,5.35
2023-08-15T09:07:53.775Z,5.75
2023-08-15T09:13:01.646Z,10.98
2023-08-15T09:18:06.430Z,6.50
2023-08-15T09:23:10.769Z,7.28
2023-08-15T09:28:14.644Z,6.68
2023-08-15T09:33:17.372Z,6.57
2023-08-15T09:38:19.845Z,4.68
2023-08-15T09:43:22.788Z,6.82
2023-08-15T09:48:35.928Z,3.85
2023-08-15T09:53:39.892Z,14.65
2023-08-15T09:58:42.666Z,4.72
2023-08-15T10:03:45.725Z,3.83
2023-08-15T10:08:48.781Z,7.25
2023-08-15T10:13:52.584Z,7.28
2023-08-15T10:18:55.888Z,3.85
2023-08-15T10:24:05.863Z,4.60
2023-08-15T10:29:25.769Z,4.07
2023-08-15T10:34:33.740Z,5.78
2023-08-15T10:39:39.282Z,6.85
2023-08-15T10:45:01.441Z,4.80
2023-08-15T10:50:04.855Z,7.10
2023-08-15T10:55:11.949Z,3.70
2023-08-15T11:00:31.180Z,6.15
2023-08-15T11:05:35.403Z,6.18
2023-08-15T11:10:42.368Z,4.25
2023-08-15T11:15:58.750Z,3.20
2023-08-15T11:21:05.005Z,4.82
2023-08-15T11:26:13.485Z,6.05
2023-08-15T11:31:22.410Z,5.32
2023-08-15T11:36:25.895Z,3.65
2023-08-15T11:41:36.853Z,5.38
2023-08-15T11:51:53.143Z,7.47
2023-08-15T11:57:06.523Z,8.00
2023-08-15T12:02:13.878Z,8.60
2023-08-15T12:07:33.226Z,25.48
2023-08-15T12:12:50.696Z,5.22
2023-08-15T12:17:53.401Z,5.50
2023-08-15T12:23:38.566Z,6.53
2023-08-15T12:28:42.052Z,6.28
2023-08-15T12:33:47.424Z,4.35
2023-08-15T12:38:51.479Z,9.93
2023-08-15T12:43:54.236Z,7.70
2023-08-15T12:49:03.877Z,13.55
2023-08-15T12:54:06.883Z,5.35
2023-08-15T12:59:10.386Z,7.18
2023-08-15T13:04:20.396Z,3.63
2023-08-15T13:09:23.029Z,6.40
2023-08-15T13:14:33.223Z,4.63
2023-08-15T13:19:36.933Z,3.00
2023-08-15T13:24:42.651Z,9.65
2023-08-15T13:30:12.428Z,3.30
2023-08-15T13:35:29.852Z,2.97
2023-08-15T13:40:32.965Z,4.97
2023-08-15T13:45:35.916Z,5.60
2023-08-15T13:50:39.238Z,4.45
2023-08-15T13:55:45.773Z,3.63
2023-08-15T14:00:51.652Z,8.15
2023-08-15T14:05:56.519Z,4.55
2023-08-15T14:11:01.146Z,6.72
2023-08-15T14:16:04.438Z,5.00
2023-08-15T14:21:10.436Z,5.13
2023-08-15T14:26:15.085Z,3.03
2023-08-15T14:31:43.383Z,3.78
2023-08-15T14:36:48.200Z,3.95
2023-08-15T14:41:51.916Z,3.92
2023-08-15T14:46:54.757Z,2.50
2023-08-15T14:51:57.630Z,3.85
2023-08-15T14:57:32.354Z,3.85
2023-08-15T15:02:43.921Z,2.60
2023-08-15T15:07:47.398Z,5.70
2023-08-15T15:12:50.332Z,3.42
2023-08-15T15:17:58.455Z,4.15
2023-08-15T15:23:01.099Z,4.65
2023-08-15T15:28:03.599Z,3.22
2023-08-15T15:33:07.271Z,2.85
2023-08-15T15:38:10.009Z,2.97
2023-08-15T15:43:12.577Z,4.20
2023-08-15T15:48:15.179Z,2.92
2023-08-15T15:53:18.562Z,3.55
2023-08-15T15:58:27.983Z,5.15
2023-08-15T16:03:31.069Z,5.45
2023-08-15T16:08:33.778Z,4.53
2023-08-15T16:13:36.879Z,6.43
2023-08-15T16:18:39.415Z,3.22
2023-08-15T16:23:42.927Z,2.85
2023-08-15T16:28:51.907Z,2.92
2023-08-15T16:33:54.915Z,3.25
2023-08-15T16:38:57.317Z,5.10
2023-08-15T16:43:59.958Z,5.80
2023-08-15T16:49:02.326Z,6.70
2023-08-15T16:54:06.050Z,9.23
2023-08-15T16:59:14.343Z,4.40
2023-08-15T17:04:17.476Z,3.80
2023-08-15T17:09:20.345Z,3.20
2023-08-15T17:14:23.145Z,6.07
2023-08-15T17:19:26.044Z,4.85
2023-08-15T17:24:28.959Z,3.97
2023-08-15T17:29:31.437Z,4.53
2023-08-15T17:34:36.678Z,4.63
2023-08-15T17:39:39.246Z,3.60
2023-08-15T17:44:42.606Z,6.20
2023-08-15T17:49:45.844Z,5.30
2023-08-15T17:54:59.165Z,3.42
2023-08-15T18:00:02.992Z,4.70
2023-08-15T18:05:06.862Z,4.50
2023-08-15T18:10:12.315Z,8.57
2023-08-15T18:15:15.420Z,8.95
2023-08-15T18:20:18.191Z,4.93
2023-08-15T18:25:30.323Z,8.25
2023-08-15T18:30:33.970Z,6.63
2023-08-15T18:35:37.777Z,11.25
2023-08-15T18:40:41.909Z,14.10
2023-08-15T18:46:09.473Z,4.70
2023-08-15T18:56:28.813Z,7.82
2023-08-15T19:02:02.671Z,7.57
2023-08-15T19:07:06.526Z,7.68
2023-08-15T19:12:14.177Z,14.85
2023-08-15T19:17:19.959Z,6.47
2023-08-15T19:22:22.827Z,7.55
2023-08-15T19:27:26.687Z,7.28
2023-08-15T19:32:29.568Z,6.95
2023-08-15T19:37:38.864Z,9.15
2023-08-15T19:42:50.043Z,11.43
2023-08-15T19:48:20.644Z,10.05
2023-08-15T19:53:24.074Z,4.78
2023-08-15T19:58:26.627Z,10.85
2023-08-15T20:03:48.341Z,8.00
2023-08-15T20:08:51.373Z,12.02
2023-08-15T20:13:59.454Z,11.40
2023-08-15T20:19:02.619Z,10.18
2023-08-15T20:24:06.564Z,7.93
2023-08-15T20:29:38.164Z,13.88
2023-08-15T20:34:41.663Z,9.32
2023-08-15T20:39:44.507Z,16.70
2023-08-15T20:44:47.433Z,12.20
2023-08-15T20:49:49.781Z,9.48
2023-08-15T20:54:54.109Z,9.43
2023-08-15T20:59:58.337Z,7.47
2023-08-15T21:05:02.606Z,10.55
2023-08-15T21:10:06.181Z,14.85
2023-08-15T21:15:10.610Z,7.47
2023-08-15T21:20:13.823Z,10.68
2023-08-15T21:25:16.775Z,6.20
2023-08-15T21:30:19.712Z,18.75
2023-08-15T21:35:22.559Z,12.48
2023-08-15T21:40:25.115Z,7.13
2023-08-15T21:45:28.076Z,5.43
2023-08-15T21:51:21.192Z,6.13
2023-08-15T21:56:24.164Z,5.20
2023-08-15T22:01:34.980Z,5.25
2023-08-15T22:06:40.955Z,5.13
2023-08-15T22:11:45.078Z,7.85
2023-08-15T22:16:47.838Z,7.40
2023-08-15T22:21:50.488Z,5.13
2023-08-15T22:27:18.345Z,7.05
2023-08-15T22:32:59.159Z,6.20
2023-08-15T22:38:08.768Z,5.60
2023-08-15T22:43:11.806Z,10.25
2023-08-15T22:48:14.660Z,6.70
2023-08-15T22:53:17.789Z,7.68
2023-08-15T22:58:31.486Z,12.77
2023-08-15T23:04:26.321Z,5.97
2023-08-15T23:09:41.575Z,6.43
2023-08-15T23:14:44.562Z,8.23
2023-08-15T23:19:47.339Z,8.00
2023-08-15T23:24:49.916Z,5.30
2023-08-15T23:29:52.900Z,11.00
2023-08-15T23:34:55.742Z,8.43
2023-08-15T23:39:58.271Z,5.63
2023-08-15T23:45:01.185Z,9.13
2023-08-15T23:50:04.511Z,5.05
2023-08-15T23:55:12.389Z,7.97
